Time;durP1;ratioP1;P1;durP2;ratioP2;P2;SDS_P1;SDS_P2;PMS_P1;PMS_P2;Temp;Humidity;BMP_temperature;BMP_pressure;BME280_temperature;BME280_humidity;BME280_pressure;Samples;Min_cycle;Max_cycle;Signal;HPM_P1;HPM_P2
2023/12/02 00:00:37;;;;;;;0.80;0.50;;;;;;;-5.48;100.00;100329.38;4889048;29;20224;-65
2023/12/02 00:03:16;;;;;;;3.00;2.80;;;;;;;-5.47;100.00;100325.78;4902229;29;20194;-67
2023/12/02 00:05:56;;;;;;;4.35;3.95;;;;;;;-5.49;100.00;100310.06;4899166;29;20249;-64
2023/12/02 00:08:30;;;;;;;2.80;1.77;;;;;;;-5.42;100.00;100308.63;4896209;29;20607;-65
2023/12/02 00:11:07;;;;;;;6.65;2.92;;;;;;;-5.47;100.00;100318.69;4905471;29;20192;-67
2023/12/02 00:13:54;;;;;;;2.45;2.35;;;;;;;-5.66;100.00;100307.81;4894031;29;20197;-66
2023/12/02 00:16:43;;;;;;;1.02;0.90;;;;;;;-5.62;100.00;100308.47;4909223;29;20579;-65
2023/12/02 00:19:19;;;;;;;5.20;4.53;;;;;;;-5.57;100.00;100317.72;4901907;29;20198;-66
2023/12/02 00:22:08;;;;;;;3.05;1.90;;;;;;;-5.67;100.00;100321.16;4902524;29;20301;-66
2023/12/02 00:24:44;;;;;;;0.80;0.50;;;;;;;-5.89;100.00;100311.34;4898423;29;20712;-68
2023/12/02 00:27:23;;;;;;;6.15;1.40;;;;;;;-5.87;100.00;100291.84;4901128;29;20201;-65
2023/12/02 00:30:24;;;;;;;15.75;2.72;;;;;;;-5.95;100.00;100306.53;4887559;29;20296;-67
2023/12/02 00:33:07;;;;;;;2.35;2.25;;;;;;;-6.01;100.00;100307.84;4896576;29;20233;-68
2023/12/02 00:35:57;;;;;;;3.05;2.85;;;;;;;-6.04;100.00;100300.13;4917240;29;20227;-66
2023/12/02 00:38:41;;;;;;;2.35;1.02;;;;;;;-6.01;100.00;100293.81;4878440;29;20197;-67
2023/12/02 00:44:13;;;;;;;0.90;0.68;;;;;;;-6.27;100.00;100290.41;4917116;29;20219;-67
2023/12/02 00:46:59;;;;;;;0.80;0.60;;;;;;;-6.30;100.00;100286.22;4898326;29;20595;-66
2023/12/02 00:49:40;;;;;;;0.80;0.50;;;;;;;-6.20;100.00;100302.22;4908016;29;20295;-67
2023/12/02 00:52:20;;;;;;;4.47;1.40;;;;;;;-6.23;100.00;100297.16;4908513;29;20253;-66
2023/12/02 00:55:06;;;;;;;0.80;0.50;;;;;;;-6.27;100.00;100308.84;4904621;29;20210;-67
2023/12/02 00:57:44;;;;;;;3.10;2.97;;;;;;;-6.27;100.00;100295.69;4893849;29;20550;-66
2023/12/02 01:00:28;;;;;;;1.40;0.98;;;;;;;-6.43;100.00;100301.19;4898696;29;20229;-67
2023/12/02 01:03:30;;;;;;;1.45;1.35;;;;;;;-6.39;100.00;100300.03;4894297;29;20202;-66
2023/12/02 01:06:09;;;;;;;10.88;1.27;;;;;;;-6.42;100.00;100297.63;4929389;29;20236;-67
2023/12/02 01:08:53;;;;;;;0.80;0.50;;;;;;;-6.52;100.00;100296.59;4917078;29;20202;-66
2023/12/02 01:11:28;;;;;;;1.20;0.95;;;;;;;-6.63;100.00;100294.69;4907805;29;20193;-68
2023/12/02 01:14:08;;;;;;;2.25;1.65;;;;;;;-6.73;100.00;100295.47;4926439;29;20280;-68
2023/12/02 01:16:44;;;;;;;1.50;1.40;;;;;;;-6.40;100.00;100310.69;4918729;29;20209;-66
2023/12/02 01:19:27;;;;;;;1.13;1.02;;;;;;;-6.28;100.00;100307.16;4909185;29;20681;-67
2023/12/02 01:22:17;;;;;;;0.80;0.50;;;;;;;-6.03;100.00;100315.00;4917210;29;20194;-68
2023/12/02 01:24:58;;;;;;;5.13;2.83;;;;;;;-6.10;100.00;100316.41;4926528;29;20560;-66
2023/12/02 01:27:37;;;;;;;1.98;1.88;;;;;;;-5.98;100.00;100315.50;4924849;29;20225;-67
2023/12/02 01:30:16;;;;;;;2.58;2.45;;;;;;;-6.17;100.00;100317.78;4916860;29;20708;-67
2023/12/02 01:32:55;;;;;;;1.63;1.52;;;;;;;-6.20;100.00;100318.84;4920192;29;20494;-67
2023/12/02 01:35:36;;;;;;;1.38;1.27;;;;;;;-6.18;100.00;100313.47;4891749;29;20594;-67
2023/12/02 01:38:16;;;;;;;3.67;2.00;;;;;;;-6.19;100.00;100322.31;4918853;29;20283;-67
2023/12/02 01:41:05;;;;;;;2.22;1.58;;;;;;;-6.24;100.00;100330.53;4921265;29;20192;-66
2023/12/02 01:46:43;;;;;;;8.20;3.10;;;;;;;-6.43;100.00;100316.16;4905878;29;20205;-66
2023/12/02 01:49:34;;;;;;;3.15;3.00;;;;;;;-6.34;100.00;100305.00;4916121;29;20203;-68
2023/12/02 01:52:18;;;;;;;0.80;0.75;;;;;;;-6.43;100.00;100306.47;4917805;29;20224;-66
2023/12/02 01:55:01;;;;;;;3.67;1.60;;;;;;;-6.38;100.00;100316.66;4906178;29;20281;-68
2023/12/02 01:57:42;;;;;;;4.38;3.92;;;;;;;-6.46;100.00;100322.47;4907432;29;20197;-67
2023/12/02 02:00:21;;;;;;;1.58;1.42;;;;;;;-6.47;100.00;100319.94;4918956;29;20589;-65
2023/12/02 02:03:33;;;;;;;2.28;2.15;;;;;;;-6.47;100.00;100327.84;4916067;29;20209;-66
2023/12/02 02:06:16;;;;;;;0.80;0.70;;;;;;;-6.52;100.00;100322.91;4916204;29;20217;-67
2023/12/02 02:08:54;;;;;;;5.13;2.00;;;;;;;-6.52;100.00;100327.31;4916182;29;20273;-66
2023/12/02 02:11:36;;;;;;;3.70;2.22;;;;;;;-6.65;100.00;100333.47;4905280;29;20211;-67
2023/12/02 02:14:19;;;;;;;1.38;1.00;;;;;;;-6.46;100.00;100335.66;4907060;29;20236;-68
2023/12/02 02:17:06;;;;;;;1.70;1.52;;;;;;;-6.64;100.00;100324.63;4924176;29;20575;-68
2023/12/02 02:19:43;;;;;;;0.90;0.80;;;;;;;-6.63;100.00;100335.97;4907566;29;20552;-67
2023/12/02 02:22:27;;;;;;;1.65;1.35;;;;;;;-6.79;100.00;100325.69;4915487;29;20702;-67
2023/12/02 02:25:11;;;;;;;0.93;0.82;;;;;;;-6.58;100.00;100325.16;4921263;29;20217;-68
2023/12/02 02:28:00;;;;;;;1.35;1.25;;;;;;;-6.33;100.00;100317.19;4911409;29;20204;-67
2023/12/02 02:30:42;;;;;;;0.80;0.60;;;;;;;-6.45;100.00;100318.91;4915331;29;20205;-67
2023/12/02 02:33:19;;;;;;;1.75;1.67;;;;;;;-6.55;100.00;100311.75;4912891;29;20193;-67
2023/12/02 02:35:58;;;;;;;0.80;0.50;;;;;;;-6.37;100.00;100316.56;4927917;29;20673;-66
2023/12/02 02:38:41;;;;;;;2.13;2.03;;;;;;;-6.22;100.00;100319.91;4915307;29;20621;-68
2023/12/02 02:41:20;;;;;;;0.82;0.82;;;;;;;-6.14;100.00;100312.28;4919076;29;20619;-67
2023/12/02 02:44:01;;;;;;;1.35;1.25;;;;;;;-6.44;100.00;100299.53;4905991;29;20217;-67
2023/12/02 02:46:42;;;;;;;1.83;1.73;;;;;;;-6.49;100.00;100293.75;4915798;29;20232;-65
2023/12/02 02:49:27;;;;;;;3.08;2.97;;;;;;;-6.58;100.00;100306.72;4912607;29;20257;-67
2023/12/02 02:52:04;;;;;;;1.80;1.70;;;;;;;-6.60;100.00;100298.94;4923045;29;20197;-67
2023/12/02 02:54:54;;;;;;;1.30;1.20;;;;;;;-6.44;100.00;100298.69;4915791;29;20229;-67
2023/12/02 02:57:33;;;;;;;2.08;1.25;;;;;;;-6.60;100.00;100293.66;4920463;29;20202;-68
2023/12/02 03:00:13;;;;;;;1.65;1.52;;;;;;;-6.56;100.00;100283.75;4933977;29;20216;-67
2023/12/02 03:05:44;;;;;;;4.13;1.88;;;;;;;-6.65;100.00;100291.34;4927204;29;20228;-68
2023/12/02 03:08:25;;;;;;;3.20;3.00;;;;;;;-6.60;100.00;100294.50;4913441;29;20201;-67
2023/12/02 03:11:08;;;;;;;53.85;3.83;;;;;;;-6.71;100.00;100299.69;4918979;29;20236;-67
2023/12/02 03:13:55;;;;;;;1.00;0.88;;;;;;;-6.59;100.00;100308.50;4927300;29;20200;-68
2023/12/02 03:16:54;;;;;;;2.65;2.45;;;;;;;-6.76;100.00;100309.69;4925640;29;20643;-67
2023/12/02 03:19:32;;;;;;;0.80;0.75;;;;;;;-6.74;100.00;100317.47;4923094;29;20248;-67
2023/12/02 03:22:12;;;;;;;0.80;0.68;;;;;;;-6.65;100.00;100314.19;4928006;29;20196;-67
2023/12/02 03:25:00;;;;;;;0.90;0.60;;;;;;;-6.80;100.00;100331.88;4920714;29;20229;-65
2023/12/02 03:27:54;;;;;;;0.85;0.63;;;;;;;-6.45;100.00;100328.59;4923152;29;20192;-67
2023/12/02 03:30:36;;;;;;;3.15;2.72;;;;;;;-6.58;100.00;100327.78;4939378;29;20188;-69
2023/12/02 03:33:24;;;;;;;4.55;4.32;;;;;;;-6.34;100.00;100320.78;4918431;29;20201;-67
2023/12/02 03:36:11;;;;;;;0.80;0.50;;;;;;;-6.50;100.00;100330.72;4925923;29;20201;-68
2023/12/02 03:38:57;;;;;;;3.95;3.65;;;;;;;-6.42;100.00;100328.38;4943561;29;20230;-67
2023/12/02 03:41:39;;;;;;;1.17;0.98;;;;;;;-6.46;100.00;100338.28;4936040;29;20287;-66
2023/12/02 03:44:20;;;;;;;2.90;2.70;;;;;;;-6.47;100.00;100333.13;4940533;29;20212;-67
2023/12/02 03:47:03;;;;;;;3.55;3.35;;;;;;;-6.47;100.00;100330.47;4962687;29;20232;-66
2023/12/02 03:49:43;;;;;;;1.40;1.30;;;;;;;-6.60;100.00;100331.34;4937316;29;20193;-66
2023/12/02 03:52:27;;;;;;;1.83;1.08;;;;;;;-6.66;100.00;100321.25;4962349;28;20200;-65
2023/12/02 03:55:09;;;;;;;1.02;0.93;;;;;;;-6.75;100.00;100321.88;4956639;29;20224;-64
2023/12/02 03:57:45;;;;;;;2.58;1.58;;;;;;;-6.78;100.00;100322.13;4928687;29;20193;-67
2023/12/02 04:00:39;;;;;;;0.80;0.60;;;;;;;-6.99;100.00;100326.22;4930477;29;20199;-68
2023/12/02 04:03:28;;;;;;;0.80;0.57;;;;;;;-6.97;100.00;100332.19;4939399;29;20806;-67
2023/12/02 04:06:11;;;;;;;0.80;0.68;;;;;;;-6.95;100.00;100346.09;4915799;29;20216;-67
2023/12/02 04:08:50;;;;;;;11.07;3.58;;;;;;;-6.88;100.00;100342.09;4928204;29;20201;-67
2023/12/02 04:11:38;;;;;;;0.80;0.60;;;;;;;-6.81;100.00;100345.97;4904138;29;20198;-68
2023/12/02 04:14:25;;;;;;;1.65;1.50;;;;;;;-6.76;100.00;100349.13;4905633;29;20234;-67
2023/12/02 04:17:08;;;;;;;1.40;1.30;;;;;;;-6.80;100.00;100329.25;4897668;29;20198;-67
2023/12/02 04:19:49;;;;;;;2.03;1.92;;;;;;;-6.78;100.00;100332.63;4925846;29;20257;-67
2023/12/02 04:22:30;;;;;;;2.10;1.90;;;;;;;-6.76;100.00;100330.72;4906841;29;20201;-67
2023/12/02 04:25:16;;;;;;;14.75;3.22;;;;;;;-6.69;100.00;100315.38;4919230;29;20225;-67
2023/12/02 04:28:00;;;;;;;0.80;0.60;;;;;;;-6.46;100.00;100316.38;4908285;29;20257;-67
2023/12/02 04:30:44;;;;;;;0.80;0.60;;;;;;;-6.37;100.00;100302.56;4914721;29;20207;-65
2023/12/02 04:33:35;;;;;;;1.98;1.77;;;;;;;-6.42;100.00;100323.09;4900748;29;20213;-67
2023/12/02 04:36:17;;;;;;;1.63;1.30;;;;;;;-6.50;100.00;100333.34;4894322;29;20203;-67
2023/12/02 04:39:04;;;;;;;1.58;1.48;;;;;;;-6.66;100.00;100339.66;4907240;29;20200;-65
2023/12/02 04:41:43;;;;;;;1.50;1.40;;;;;;;-6.78;100.00;100324.75;4906434;29;20200;-67
2023/12/02 04:44:21;;;;;;;1.17;1.08;;;;;;;-6.97;100.00;100313.78;4907747;29;20225;-67
2023/12/02 04:47:00;;;;;;;0.90;0.80;;;;;;;-7.04;100.00;100315.16;4901457;29;20224;-66
2023/12/02 04:49:47;;;;;;;0.80;0.60;;;;;;;-6.99;100.00;100315.69;4920885;29;20224;-65
2023/12/02 04:52:32;;;;;;;0.80;0.55;;;;;;;-6.97;100.00;100320.84;4898416;29;20261;-65
2023/12/02 04:55:14;;;;;;;2.22;2.13;;;;;;;-6.99;100.00;100322.72;4912672;29;20243;-65
2023/12/02 04:58:14;;;;;;;0.80;0.50;;;;;;;-6.96;100.00;100322.50;4910429;29;20273;-67
2023/12/02 05:01:04;;;;;;;0.80;0.50;;;;;;;-7.21;100.00;100329.44;4930460;29;20283;-66
2023/12/02 05:03:43;;;;;;;0.80;0.50;;;;;;;-7.09;100.00;100339.13;4895446;28;20553;-66
2023/12/02 05:06:22;;;;;;;5.80;2.15;;;;;;;-7.21;100.00;100350.47;4913298;29;20321;-66
2023/12/02 05:09:00;;;;;;;0.80;0.50;;;;;;;-7.14;100.00;100361.44;4892099;29;20250;-67
2023/12/02 05:11:51;;;;;;;0.80;0.70;;;;;;;-7.10;100.00;100360.28;4910873;29;20292;-66
2023/12/02 05:14:35;;;;;;;0.80;0.63;;;;;;;-7.02;100.00;100353.53;4904251;29;20329;-66
2023/12/02 05:17:14;;;;;;;0.80;0.50;;;;;;;-6.87;100.00;100354.28;4891834;29;20205;-66
2023/12/02 05:19:57;;;;;;;0.80;0.50;;;;;;;-6.92;100.00;100363.47;4901047;29;20737;-67
2023/12/02 05:22:42;;;;;;;1.45;1.35;;;;;;;-6.75;100.00;100363.13;4895673;29;20197;-67
2023/12/02 05:25:27;;;;;;;1.33;1.23;;;;;;;-6.62;100.00;100364.81;4887830;29;20217;-67
2023/12/02 05:28:12;;;;;;;1.15;1.05;;;;;;;-6.81;100.00;100374.91;4902086;29;20206;-68
2023/12/02 05:30:54;;;;;;;0.98;0.85;;;;;;;-6.96;100.00;100365.44;4905189;29;20253;-67
2023/12/02 05:33:41;;;;;;;1.33;1.23;;;;;;;-6.85;100.00;100372.59;4905971;29;20197;-66
2023/12/02 05:36:22;;;;;;;0.80;0.55;;;;;;;-6.78;100.00;100369.47;4909506;29;20228;-67
2023/12/02 05:39:06;;;;;;;0.80;0.73;;;;;;;-6.72;100.00;100371.66;4899817;29;20198;-67
2023/12/02 05:41:45;;;;;;;0.80;0.50;;;;;;;-6.51;100.00;100381.66;4897113;29;20208;-68
2023/12/02 05:44:27;;;;;;;1.58;1.48;;;;;;;-6.32;100.00;100375.00;4899675;29;20364;-67
2023/12/02 05:47:26;;;;;;;1.33;1.23;;;;;;;-6.37;100.00;100373.63;4912631;29;20708;-68
2023/12/02 05:50:06;;;;;;;0.80;0.75;;;;;;;-6.41;100.00;100374.81;4910252;29;20193;-65
2023/12/02 05:52:48;;;;;;;1.13;0.77;;;;;;;-6.51;100.00;100384.28;4910930;29;20583;-67
2023/12/02 05:55:30;;;;;;;0.80;0.50;;;;;;;-6.50;100.00;100391.25;4919624;29;20562;-68
2023/12/02 05:58:09;;;;;;;0.80;0.50;;;;;;;-6.61;100.00;100386.72;4905125;29;20186;-67
2023/12/02 06:00:50;;;;;;;0.80;0.50;;;;;;;-6.30;100.00;100380.19;4904142;29;20197;-68
2023/12/02 06:03:27;;;;;;;1.13;1.02;;;;;;;-6.13;100.00;100392.13;4916109;29;20196;-68
2023/12/02 06:06:27;;;;;;;1.30;1.20;;;;;;;-6.21;100.00;100390.06;4916655;29;20247;-67
2023/12/02 06:09:03;;;;;;;3.22;3.03;;;;;;;-6.11;100.00;100383.19;4911843;29;20204;-67
2023/12/02 06:11:52;;;;;;;0.80;0.50;;;;;;;-6.20;100.00;100392.59;4905331;29;20189;-67
2023/12/02 06:14:37;;;;;;;1.60;1.25;;;;;;;-6.19;100.00;100385.50;4923320;29;20293;-66
2023/12/02 06:17:40;;;;;;;2.35;2.25;;;;;;;-6.09;100.00;100385.69;4923823;29;20196;-67
2023/12/02 06:20:36;;;;;;;0.80;0.50;;;;;;;-6.07;100.00;100381.19;4898074;29;20202;-67
2023/12/02 06:23:16;;;;;;;5.47;2.00;;;;;;;-6.16;100.00;100390.56;4889316;29;20206;-66
2023/12/02 06:25:52;;;;;;;0.80;0.50;;;;;;;-6.10;100.00;100389.31;4914086;29;20319;-66
2023/12/02 06:28:34;;;;;;;0.80;0.60;;;;;;;-6.01;100.00;100388.66;4908636;29;20262;-68
2023/12/02 06:31:22;;;;;;;0.80;0.50;;;;;;;-6.09;100.00;100389.19;4908386;29;20205;-66
2023/12/02 06:34:04;;;;;;;14.90;1.55;;;;;;;-5.95;100.00;100386.41;4896982;29;20282;-67
2023/12/02 06:36:48;;;;;;;0.80;0.50;;;;;;;-5.97;100.00;100382.22;4920840;29;20197;-67
2023/12/02 06:39:27;;;;;;;0.90;0.70;;;;;;;-6.06;100.00;100388.97;4911766;29;20193;-68
2023/12/02 06:42:14;;;;;;;0.80;0.50;;;;;;;-5.98;100.00;100386.63;4911575;29;20197;-67
2023/12/02 06:44:51;;;;;;;1.30;1.20;;;;;;;-6.03;100.00;100372.94;4908082;29;20239;-67
2023/12/02 06:47:25;;;;;;;1.25;0.88;;;;;;;-5.86;100.00;100383.09;4906638;29;20228;-67
2023/12/02 06:50:05;;;;;;;1.48;1.38;;;;;;;-5.79;100.00;100397.50;4911404;29;20192;-65
2023/12/02 06:52:39;;;;;;;1.10;0.82;;;;;;;-5.80;100.00;100406.34;4915942;29;20742;-67
2023/12/02 06:55:19;;;;;;;0.80;0.50;;;;;;;-5.58;100.00;100399.53;4927448;29;20205;-66
2023/12/02 06:58:03;;;;;;;0.80;0.50;;;;;;;-5.53;100.00;100402.69;4914375;29;20220;-67
2023/12/02 07:00:46;;;;;;;0.80;0.57;;;;;;;-5.53;100.00;100405.31;4923309;29;20611;-65
2023/12/02 07:03:26;;;;;;;0.80;0.75;;;;;;;-5.56;100.00;100416.06;4898663;29;20216;-65
2023/12/02 07:06:03;;;;;;;0.80;0.60;;;;;;;-5.63;100.00;100417.47;4908708;29;20205;-67
2023/12/02 07:08:44;;;;;;;1.42;1.15;;;;;;;-5.56;100.00;100418.72;4894914;29;20240;-67
2023/12/02 07:11:26;;;;;;;1.00;0.90;;;;;;;-5.45;100.00;100411.72;4907639;29;20572;-66
2023/12/02 07:14:05;;;;;;;0.80;0.50;;;;;;;-5.56;100.00;100416.06;4899997;29;20224;-66
2023/12/02 07:16:45;;;;;;;1.77;1.67;;;;;;;-5.45;100.00;100413.50;4919020;29;20205;-67
2023/12/02 07:19:23;;;;;;;2.45;2.35;;;;;;;-5.32;100.00;100420.41;4891974;29;20631;-65
2023/12/02 07:21:57;;;;;;;1.45;1.35;;;;;;;-5.33;100.00;100420.53;4899555;29;20205;-67
2023/12/02 07:24:44;;;;;;;0.80;0.57;;;;;;;-5.36;100.00;100426.00;4882376;29;20316;-67
2023/12/02 07:27:26;;;;;;;0.80;0.70;;;;;;;-5.40;100.00;100429.84;4920708;29;20197;-66
2023/12/02 07:30:03;;;;;;;3.85;3.45;;;;;;;-5.38;100.00;100441.13;4898941;29;20324;-67
2023/12/02 07:32:55;;;;;;;0.80;0.60;;;;;;;-5.42;100.00;100448.38;4905295;29;20198;-66
2023/12/02 07:35:34;;;;;;;2.33;2.17;;;;;;;-5.18;100.00;100450.22;4900345;29;20217;-66
2023/12/02 07:38:14;;;;;;;2.45;1.50;;;;;;;-5.15;100.00;100448.19;4896209;29;20190;-67
2023/12/02 07:41:01;;;;;;;1.70;1.60;;;;;;;-5.32;100.00;100445.94;4895015;29;20199;-68
2023/12/02 07:43:38;;;;;;;1.70;1.60;;;;;;;-5.28;100.00;100450.06;4894582;29;20217;-67
2023/12/02 07:46:15;;;;;;;0.80;0.60;;;;;;;-5.21;100.00;100448.63;4901432;29;20205;-66
2023/12/02 07:48:55;;;;;;;0.80;0.60;;;;;;;-5.38;100.00;100439.34;4896587;29;20232;-67
2023/12/02 07:51:30;;;;;;;2.97;2.17;;;;;;;-5.28;100.00;100445.59;4903716;29;20198;-66
2023/12/02 07:54:07;;;;;;;1.80;1.70;;;;;;;-5.35;100.00;100448.78;4916227;29;20212;-66
2023/12/02 07:56:47;;;;;;;1.00;0.90;;;;;;;-5.48;100.00;100454.13;4899478;29;20197;-66
2023/12/02 07:59:27;;;;;;;0.80;0.50;;;;;;;-5.42;100.00;100447.59;4895083;29;20194;-68
2023/12/02 08:02:05;;;;;;;4.32;1.02;;;;;;;-5.31;100.00;100440.56;4905724;29;20233;-67
2023/12/02 08:04:49;;;;;;;3.20;3.00;;;;;;;-5.19;100.00;100436.19;4899139;29;20217;-65
2023/12/02 08:07:31;;;;;;;1.00;0.82;;;;;;;-4.87;100.00;100444.34;4912713;29;20337;-66
2023/12/02 08:10:13;;;;;;;5.90;2.70;;;;;;;-4.82;100.00;100448.31;4933152;29;20200;-67
2023/12/02 08:12:49;;;;;;;1.00;0.90;;;;;;;-4.94;100.00;100443.13;4915394;29;20199;-67
2023/12/02 08:15:39;;;;;;;7.43;3.50;;;;;;;-4.93;100.00;100440.34;4922169;29;20253;-65
2023/12/02 08:18:15;;;;;;;2.17;1.17;;;;;;;-4.82;100.00;100437.75;4922139;29;20224;-67
2023/12/02 08:20:53;;;;;;;1.27;1.15;;;;;;;-4.56;100.00;100437.59;4924368;29;20302;-67
2023/12/02 08:23:30;;;;;;;1.55;0.82;;;;;;;-4.20;100.00;100445.31;4920483;29;20665;-65
2023/12/02 08:26:11;;;;;;;2.20;2.10;;;;;;;-4.43;100.00;100451.53;4919861;29;20204;-67
2023/12/02 08:28:50;;;;;;;4.10;1.77;;;;;;;-4.25;100.00;100458.03;4919796;29;20230;-67
2023/12/02 08:31:30;;;;;;;1.75;1.35;;;;;;;-3.98;100.00;100458.53;4937383;29;20596;-66
2023/12/02 08:34:05;;;;;;;5.78;1.95;;;;;;;-3.96;100.00;100464.53;4918091;29;20229;-66
2023/12/02 08:36:56;;;;;;;18.17;2.83;;;;;;;-4.18;100.00;100467.19;4915333;29;20589;-67
2023/12/02 08:39:39;;;;;;;3.53;2.05;;;;;;;-3.92;100.00;100467.78;4915835;29;20219;-67
2023/12/02 08:42:16;;;;;;;2.00;1.08;;;;;;;-3.73;100.00;100473.31;4918334;29;20225;-67
2023/12/02 08:44:53;;;;;;;4.30;2.60;;;;;;;-3.82;100.00;100475.81;4930729;29;20224;-66
2023/12/02 08:47:31;;;;;;;1.00;0.90;;;;;;;-3.83;100.00;100485.59;4923223;29;20609;-67
2023/12/02 08:50:11;;;;;;;0.80;0.50;;;;;;;-3.66;100.00;100495.66;4915157;29;20210;-67
2023/12/02 08:52:58;;;;;;;2.03;1.30;;;;;;;-4.09;100.00;100484.97;4923355;29;20200;-67
2023/12/02 08:55:34;;;;;;;1.08;0.98;;;;;;;-3.88;100.00;100476.31;4912845;29;20644;-65
2023/12/02 08:58:16;;;;;;;0.90;0.80;;;;;;;-3.91;100.00;100480.03;4915552;29;20196;-67
2023/12/02 09:00:52;;;;;;;1.98;1.88;;;;;;;-3.47;100.00;100491.53;4921584;29;20208;-68
2023/12/02 09:03:30;;;;;;;2.45;2.25;;;;;;;-3.53;100.00;100488.41;4898030;29;20205;-66
2023/12/02 09:06:13;;;;;;;0.90;0.75;;;;;;;-3.53;100.00;100495.50;4927338;29;20215;-67
2023/12/02 09:08:55;;;;;;;5.47;1.95;;;;;;;-3.72;100.00;100492.66;4905507;29;20216;-67
2023/12/02 09:11:33;;;;;;;0.80;0.70;;;;;;;-3.62;100.00;100488.31;4903607;29;20207;-66
2023/12/02 09:14:11;;;;;;;1.55;1.45;;;;;;;-3.43;100.00;100492.97;4873755;29;20221;-67
2023/12/02 09:16:50;;;;;;;0.80;0.80;;;;;;;-3.49;100.00;100491.69;4903794;29;20220;-66
2023/12/02 09:19:56;;;;;;;0.85;0.80;;;;;;;-3.64;100.00;100482.31;4883622;29;20638;-67
2023/12/02 09:22:48;;;;;;;1.45;0.82;;;;;;;-3.60;100.00;100486.41;4911411;29;20201;-66
2023/12/02 09:25:41;;;;;;;2.35;2.22;;;;;;;-3.68;100.00;100483.53;4904241;29;20265;-67
2023/12/02 09:28:27;;;;;;;8.90;3.00;;;;;;;-3.64;100.00;100469.09;4887483;29;20574;-67
2023/12/02 09:31:12;;;;;;;0.80;0.60;;;;;;;-3.75;100.00;100477.88;4894162;29;20673;-67
2023/12/02 09:34:02;;;;;;;2.28;2.17;;;;;;;-3.63;100.00;100481.38;4918083;29;20637;-66
2023/12/02 09:36:41;;;;;;;2.95;1.60;;;;;;;-3.75;100.00;100479.69;4899281;29;20194;-65
2023/12/02 09:40:10;;;;;;;3.33;3.10;;;;;;;-3.72;100.00;100482.91;4904374;29;20192;-67
2023/12/02 09:42:56;;;;;;;2.08;1.88;;;;;;;-3.57;100.00;100476.41;4898025;29;20292;-67
2023/12/02 09:45:43;;;;;;;4.82;3.97;;;;;;;-3.30;100.00;100478.66;4898534;29;20783;-67
2023/12/02 09:48:27;;;;;;;1.20;1.10;;;;;;;-3.16;100.00;100488.13;4899926;29;20203;-66
2023/12/02 09:51:15;;;;;;;4.30;2.28;;;;;;;-3.36;100.00;100497.66;4904273;29;20202;-67
2023/12/02 09:54:00;;;;;;;1.90;1.77;;;;;;;-3.42;100.00;100499.94;4907095;29;20256;-67
2023/12/02 09:56:46;;;;;;;1.45;1.35;;;;;;;-3.51;100.00;100496.25;4903101;29;20580;-66
2023/12/02 09:59:40;;;;;;;1.75;1.25;;;;;;;-3.46;100.00;100504.66;4908573;29;20213;-68
2023/12/02 10:02:30;;;;;;;8.18;2.28;;;;;;;-3.43;100.00;100500.91;4882181;29;20205;-68
2023/12/02 10:05:15;;;;;;;0.90;0.80;;;;;;;-3.40;100.00;100509.47;4888485;29;20234;-66
2023/12/02 10:08:03;;;;;;;1.27;1.17;;;;;;;-3.27;100.00;100517.25;4909638;29;20205;-66
2023/12/02 10:10:46;;;;;;;1.95;1.80;;;;;;;-3.20;100.00;100518.47;4922432;29;20216;-65
2023/12/02 10:13:36;;;;;;;2.97;2.00;;;;;;;-3.15;100.00;100511.00;4927493;29;20254;-68
2023/12/02 10:16:34;;;;;;;2.65;2.45;;;;;;;-3.20;100.00;100500.78;4898034;29;20189;-67
2023/12/02 10:19:19;;;;;;;2.25;2.05;;;;;;;-3.69;100.00;100513.56;4907728;29;20236;-68
2023/12/02 10:22:00;;;;;;;2.33;1.95;;;;;;;-3.70;100.00;100512.72;4919898;29;20504;-67
2023/12/02 10:24:48;;;;;;;0.80;0.60;;;;;;;-4.00;100.00;100509.81;4931834;29;20220;-68
2023/12/02 10:27:32;;;;;;;2.97;2.55;;;;;;;-4.22;100.00;100515.94;4942544;29;20200;-67
2023/12/02 10:30:15;;;;;;;0.80;0.50;;;;;;;-4.42;100.00;100503.41;4917414;29;20251;-68
2023/12/02 10:33:15;;;;;;;3.25;1.30;;;;;;;-4.39;100.00;100504.00;4922039;29;20224;-66
2023/12/02 10:36:07;;;;;;;1.15;1.05;;;;;;;-4.42;100.00;100491.03;4915478;29;20220;-68
2023/12/02 10:39:09;;;;;;;0.80;0.60;;;;;;;-4.36;100.00;100489.72;4919658;29;20193;-67
2023/12/02 10:42:03;;;;;;;0.90;0.70;;;;;;;-4.29;100.00;100488.28;4933177;29;20232;-68
2023/12/02 10:44:47;;;;;;;1.38;1.23;;;;;;;-4.24;100.00;100488.78;4910161;29;20225;-66
2023/12/02 10:47:27;;;;;;;1.88;1.77;;;;;;;-4.32;100.00;100487.69;4935465;29;20189;-67
2023/12/02 10:53:12;;;;;;;1.38;0.70;;;;;;;-4.05;100.00;100490.84;4919301;29;20197;-68
2023/12/02 10:55:57;;;;;;;0.80;0.50;;;;;;;-4.13;100.00;100477.38;4901836;29;20221;-67
2023/12/02 10:58:44;;;;;;;3.22;1.58;;;;;;;-3.88;100.00;100471.03;4929314;29;20192;-67
2023/12/02 11:01:24;;;;;;;0.80;0.50;;;;;;;-3.93;100.00;100475.84;4910651;29;20640;-67
2023/12/02 11:04:12;;;;;;;2.65;1.15;;;;;;;-3.82;100.00;100475.81;4924237;29;20785;-67
2023/12/02 11:07:22;;;;;;;8.57;1.70;;;;;;;-3.46;100.00;100480.00;4933008;29;20225;-70
2023/12/02 11:10:04;;;;;;;2.05;1.85;;;;;;;-3.48;100.00;100485.41;4908280;29;20213;-67
2023/12/02 11:12:47;;;;;;;4.72;1.23;;;;;;;-3.48;100.00;100480.13;4897166;29;20202;-66
2023/12/02 11:15:40;;;;;;;1.77;1.67;;;;;;;-3.45;100.00;100485.19;4901690;29;20572;-65
2023/12/02 11:18:26;;;;;;;1.75;1.63;;;;;;;-3.33;100.00;100478.91;4902317;29;20205;-68
2023/12/02 11:21:18;;;;;;;4.22;3.70;;;;;;;-3.45;100.00;100485.19;4908514;29;20289;-66
2023/12/02 11:24:08;;;;;;;1.67;1.20;;;;;;;-3.50;100.00;100487.34;4894702;29;20229;-66
2023/12/02 11:27:13;;;;;;;7.00;3.20;;;;;;;-3.52;100.00;100479.53;4893988;29;20444;-67
2023/12/02 11:30:02;;;;;;;1.58;1.27;;;;;;;-3.28;100.00;100474.06;4881331;29;20213;-67
2023/12/02 11:32:53;;;;;;;1.65;1.55;;;;;;;-3.01;100.00;100483.38;4901350;29;20582;-66
2023/12/02 11:35:36;;;;;;;0.90;0.80;;;;;;;-3.31;100.00;100487.56;4896290;29;20222;-67
2023/12/02 11:38:22;;;;;;;1.38;1.27;;;;;;;-3.66;100.00;100485.09;4907829;29;20200;-68
2023/12/02 11:41:23;;;;;;;2.97;1.27;;;;;;;-3.53;100.00;100482.28;4903626;29;20751;-67
2023/12/02 11:44:15;;;;;;;0.80;0.50;;;;;;;-3.62;100.00;100477.72;4906893;29;20563;-66
2023/12/02 11:47:17;;;;;;;0.80;0.50;;;;;;;-3.63;100.00;100476.06;4915703;29;20771;-68
2023/12/02 11:50:09;;;;;;;1.17;1.08;;;;;;;-3.56;100.00;100471.97;4904113;29;20212;-67
2023/12/02 11:53:09;;;;;;;5.72;1.38;;;;;;;-3.46;100.00;100474.72;4910455;29;20201;-66
2023/12/02 11:55:52;;;;;;;2.13;1.98;;;;;;;-3.44;100.00;100471.00;4894839;29;20220;-66
2023/12/02 11:58:47;;;;;;;1.00;0.82;;;;;;;-3.47;100.00;100473.03;4904225;29;20545;-67
2023/12/02 12:02:05;;;;;;;3.58;1.60;;;;;;;-3.31;100.00;100470.84;4913961;29;20609;-67
2023/12/02 12:05:18;;;;;;;1.23;0.65;;;;;;;-3.51;100.00;100475.94;4904112;29;20220;-66
2023/12/02 12:08:11;;;;;;;2.03;1.77;;;;;;;-3.77;100.00;100481.59;4901323;29;20209;-66
2023/12/02 12:11:00;;;;;;;0.80;0.60;;;;;;;-4.08;100.00;100476.06;4935565;29;20208;-66
2023/12/02 12:13:44;;;;;;;1.35;1.15;;;;;;;-4.12;100.00;100477.28;4942142;29;20259;-68
2023/12/02 12:16:22;;;;;;;1.13;1.02;;;;;;;-4.17;100.00;100479.44;4911475;29;20204;-67
2023/12/02 12:19:15;;;;;;;2.30;1.10;;;;;;;-4.14;100.00;100486.28;4905380;29;20579;-68
2023/12/02 12:21:57;;;;;;;2.45;1.75;;;;;;;-4.23;100.00;100482.53;4922567;29;20221;-67
2023/12/02 12:24:39;;;;;;;1.73;1.63;;;;;;;-4.15;100.00;100480.13;4933014;29;20209;-67
2023/12/02 12:27:19;;;;;;;1.58;0.80;;;;;;;-4.06;100.00;100489.16;4939235;29;20201;-66
2023/12/02 12:30:03;;;;;;;14.60;3.40;;;;;;;-4.07;100.00;100485.69;4919070;29;20209;-68
2023/12/02 12:32:46;;;;;;;0.85;0.68;;;;;;;-4.14;100.00;100497.69;4910455;29;20291;-67
2023/12/02 12:35:43;;;;;;;2.08;0.95;;;;;;;-4.15;100.00;100501.28;4925780;29;20734;-66
2023/12/02 12:38:23;;;;;;;13.60;1.58;;;;;;;-3.99;100.00;100493.00;4911079;29;20284;-67
2023/12/02 12:41:04;;;;;;;1.75;1.52;;;;;;;-3.85;100.00;100486.66;4916273;29;20283;-68
2023/12/02 12:43:48;;;;;;;0.90;0.70;;;;;;;-3.92;100.00;100493.38;4917237;29;20199;-66
2023/12/02 12:46:31;;;;;;;1.50;1.40;;;;;;;-3.79;100.00;100496.75;4918321;29;20291;-66